Time;durP1;ratioP1;P1;durP2;ratioP2;P2;SDS_P1;SDS_P2;PMS_P1;PMS_P2;Temp;Humidity;BMP_temperature;BMP_pressure;BME280_temperature;BME280_humidity;BME280_pressure;Samples;Min_cycle;Max_cycle;Signal;HPM_P1;HPM_P2
2023/06/24 00:01:13;;;;;;;17.85;15.85;;;;;;;21.72;87.84;92857.00;5070444;28;20228;-75
2023/06/24 00:03:38;;;;;;;18.30;16.60;;;;;;;21.53;88.03;92864.84;5071381;28;20261;-79
2023/06/24 00:06:03;;;;;;;18.48;16.58;;;;;;;21.74;88.15;92876.81;5069835;28;20247;-78
2023/06/24 00:08:34;;;;;;;18.45;16.15;;;;;;;21.68;87.62;92864.88;5053228;28;20288;-78
2023/06/24 00:11:02;;;;;;;15.82;14.45;;;;;;;21.66;87.20;92858.38;5070687;28;20246;-79
2023/06/24 00:13:28;;;;;;;22.95;16.75;;;;;;;21.87;87.59;92880.97;5070970;28;20193;-78
2023/06/24 00:15:54;;;;;;;17.40;14.38;;;;;;;21.68;88.19;92872.09;5069524;28;20225;-78
2023/06/24 00:18:20;;;;;;;17.73;16.02;;;;;;;21.62;89.07;92878.78;5069351;28;20191;-78
2023/06/24 00:20:45;;;;;;;18.80;16.50;;;;;;;21.67;88.82;92889.91;5069215;28;20235;-77
2023/06/24 00:23:17;;;;;;;21.60;16.08;;;;;;;21.31;89.24;92852.88;5070014;28;20222;-77
2023/06/24 00:25:42;;;;;;;19.65;16.20;;;;;;;21.54;89.89;92888.41;5085048;28;20214;-78
2023/06/24 00:28:07;;;;;;;17.73;16.00;;;;;;;21.45;90.15;92884.34;5089021;28;20221;-78
2023/06/24 00:30:33;;;;;;;17.70;16.00;;;;;;;21.47;89.67;92885.59;5055792;28;20247;-78
2023/06/24 00:32:58;;;;;;;16.98;15.32;;;;;;;21.40;90.23;92876.66;5078753;28;20200;-79
2023/06/24 00:35:24;;;;;;;17.95;15.75;;;;;;;21.23;90.67;92864.41;5073070;28;20218;-77
2023/06/24 00:37:49;;;;;;;20.63;15.85;;;;;;;21.31;91.19;92887.41;5073464;28;20177;-78
2023/06/24 00:40:16;;;;;;;17.73;15.93;;;;;;;21.28;91.13;92888.06;5073100;28;20224;-79
2023/06/24 00:42:44;;;;;;;18.65;16.30;;;;;;;21.39;90.96;92896.34;5074025;28;20237;-78
2023/06/24 00:45:11;;;;;;;19.02;16.63;;;;;;;21.21;92.16;92898.50;5056007;28;20231;-78
2023/06/24 00:47:36;;;;;;;20.48;18.40;;;;;;;21.21;91.79;92887.09;5073834;28;20259;-78
2023/06/24 00:50:02;;;;;;;21.83;16.90;;;;;;;21.17;91.66;92880.94;5072881;28;20219;-79
2023/06/24 00:52:27;;;;;;;18.75;16.85;;;;;;;21.15;91.77;92878.63;5073509;28;20185;-79
2023/06/24 00:54:53;;;;;;;19.08;16.52;;;;;;;21.21;91.69;92889.75;5079542;28;20292;-79
2023/06/24 00:57:23;;;;;;;17.98;16.10;;;;;;;20.90;92.53;92847.91;5090175;28;20187;-79
2023/06/24 00:59:52;;;;;;;17.80;15.77;;;;;;;20.94;91.91;92842.66;5088456;28;20226;-79
2023/06/24 01:02:18;;;;;;;17.27;15.57;;;;;;;20.95;92.47;92857.50;5073848;28;20212;-79
2023/06/24 01:04:43;;;;;;;17.23;15.45;;;;;;;20.81;93.08;92839.28;5072853;28;20294;-79
2023/06/24 01:07:09;;;;;;;18.00;15.23;;;;;;;20.81;92.79;92847.22;5085294;28;20742;-79
2023/06/24 01:09:35;;;;;;;16.27;14.77;;;;;;;20.95;93.34;92855.59;5072565;28;20228;-79
2023/06/24 01:12:00;;;;;;;17.80;15.90;;;;;;;20.99;93.04;92864.50;5073305;28;20181;-79
2023/06/24 01:14:26;;;;;;;18.58;16.35;;;;;;;20.87;93.51;92853.09;5072202;28;20288;-79
2023/06/24 01:17:14;;;;;;;19.37;16.90;;;;;;;21.02;92.81;92871.78;5072868;28;20191;-78
2023/06/24 01:19:55;;;;;;;17.85;16.05;;;;;;;21.10;92.94;92872.75;5051779;28;20233;-79
2023/06/24 01:22:46;;;;;;;18.40;16.42;;;;;;;21.09;93.08;92865.91;5052107;28;20231;-78
2023/06/24 01:25:47;;;;;;;17.65;15.90;;;;;;;21.12;92.93;92865.22;5042496;28;20237;-79
2023/06/24 01:28:34;;;;;;;17.83;15.95;;;;;;;21.10;93.15;92862.13;5043899;28;20205;-79
2023/06/24 01:31:18;;;;;;;18.50;16.58;;;;;;;20.97;93.07;92852.66;5056036;28;20235;-79
2023/06/24 01:33:50;;;;;;;22.52;16.15;;;;;;;20.92;93.81;92860.84;5057474;28;20201;-78
2023/06/24 01:36:18;;;;;;;18.95;17.00;;;;;;;21.02;92.81;92863.81;5050053;28;20304;-79
2023/06/24 01:38:48;;;;;;;18.98;16.90;;;;;;;20.95;93.56;92860.16;5051931;28;20203;-78
2023/06/24 01:41:18;;;;;;;19.42;15.23;;;;;;;20.74;94.87;92849.69;5051973;28;20236;-79
2023/06/24 01:43:45;;;;;;;18.83;16.23;;;;;;;20.90;93.62;92865.69;5053573;28;20275;-78
2023/06/24 01:46:13;;;;;;;18.30;16.10;;;;;;;20.67;94.22;92865.38;5051367;28;20237;-78
2023/06/24 01:48:42;;;;;;;18.97;16.47;;;;;;;20.71;94.21;92866.28;5051233;28;20212;-78
2023/06/24 01:51:11;;;;;;;18.20;16.37;;;;;;;20.69;93.71;92861.31;5051920;28;20228;-76
2023/06/24 01:53:44;;;;;;;19.58;16.55;;;;;;;20.95;93.10;92887.47;5051876;28;20186;-76
2023/06/24 01:56:13;;;;;;;18.80;16.80;;;;;;;20.75;94.49;92896.34;5053002;28;20228;-76
2023/06/24 01:58:40;;;;;;;19.70;17.60;;;;;;;20.71;94.91;92900.78;5034564;28;20182;-76
2023/06/24 02:01:07;;;;;;;17.55;15.75;;;;;;;20.67;94.68;92908.63;5048969;28;20971;-77
2023/06/24 02:03:34;;;;;;;19.42;16.42;;;;;;;20.72;93.92;92883.00;5057742;28;20295;-77
2023/06/24 02:06:01;;;;;;;19.40;16.10;;;;;;;20.90;93.81;92908.16;5058921;28;20228;-76
2023/06/24 02:08:32;;;;;;;19.53;17.10;;;;;;;20.98;93.34;92913.38;5052276;28;20200;-77
2023/06/24 02:10:59;;;;;;;18.77;15.25;;;;;;;20.95;92.93;92897.31;5050957;28;20225;-76
2023/06/24 02:13:26;;;;;;;18.07;16.20;;;;;;;20.98;93.52;92910.72;5044443;28;20187;-77
2023/06/24 02:15:53;;;;;;;17.85;16.25;;;;;;;20.97;93.44;92905.75;5057179;28;20224;-77
2023/06/24 02:18:21;;;;;;;19.33;17.27;;;;;;;20.77;94.61;92890.69;5052010;28;20220;-77
2023/06/24 02:20:49;;;;;;;22.17;16.83;;;;;;;20.74;94.52;92892.16;5068170;28;20231;-77
2023/06/24 02:23:15;;;;;;;20.33;17.27;;;;;;;20.70;95.28;92912.50;5071910;28;20230;-77
2023/06/24 02:25:42;;;;;;;19.80;17.07;;;;;;;20.67;95.45;92911.28;5071977;28;20236;-77
2023/06/24 02:28:08;;;;;;;19.67;16.60;;;;;;;20.72;95.28;92920.91;5073604;28;20190;-77
2023/06/24 02:30:36;;;;;;;17.95;15.50;;;;;;;20.78;94.72;92922.22;5071799;28;20243;-73
2023/06/24 02:33:02;;;;;;;19.87;15.97;;;;;;;20.76;94.14;92923.66;5071540;28;20187;-78
2023/06/24 02:35:27;;;;;;;20.23;16.57;;;;;;;20.67;94.68;92937.81;5070269;28;20217;-78
2023/06/24 02:37:53;;;;;;;21.07;15.50;;;;;;;20.79;94.80;92949.53;5071116;28;20190;-78
2023/06/24 02:40:18;;;;;;;18.13;16.03;;;;;;;20.55;95.95;92964.34;5072906;28;20231;-78
2023/06/24 02:42:44;;;;;;;18.57;16.70;;;;;;;20.30;95.48;92915.03;5053946;28;20195;-78
2023/06/24 02:45:10;;;;;;;17.97;16.07;;;;;;;20.57;94.61;92966.66;5071370;28;20236;-78
2023/06/24 02:47:36;;;;;;;18.70;16.67;;;;;;;20.69;94.80;92956.84;5070393;28;20214;-77
2023/06/24 02:50:05;;;;;;;18.97;16.60;;;;;;;20.64;93.70;92930.53;5056927;28;20216;-78
2023/06/24 02:52:30;;;;;;;18.20;16.50;;;;;;;20.82;94.25;92954.97;5073242;28;20216;-78
2023/06/24 02:54:59;;;;;;;18.30;16.40;;;;;;;20.83;93.47;92953.06;5052478;28;20251;-78
2023/06/24 02:57:26;;;;;;;17.60;16.00;;;;;;;20.88;93.60;92963.47;5070677;28;20275;-78
2023/06/24 02:59:51;;;;;;;18.47;16.73;;;;;;;20.80;93.25;92943.09;5052558;28;20235;-78
2023/06/24 03:02:17;;;;;;;21.57;17.33;;;;;;;20.91;92.86;92960.13;5077132;28;20212;-78
2023/06/24 03:04:45;;;;;;;19.10;17.13;;;;;;;21.12;92.34;92972.19;5068756;28;20220;-77
2023/06/24 03:07:11;;;;;;;17.55;15.00;;;;;;;21.46;90.77;92976.25;5071412;28;20191;-77
2023/06/24 03:09:36;;;;;;;21.15;17.08;;;;;;;20.98;90.06;92894.03;5057225;28;20232;-78
2023/06/24 03:12:02;;;;;;;21.48;16.25;;;;;;;21.47;89.93;92962.63;5070670;28;20200;-78
2023/06/24 03:14:28;;;;;;;17.95;16.10;;;;;;;21.59;89.11;92977.75;5069709;28;20220;-78
2023/06/24 03:16:53;;;;;;;18.40;16.60;;;;;;;21.50;88.92;92955.84;5070264;28;20189;-78
2023/06/24 03:19:19;;;;;;;20.33;16.85;;;;;;;21.73;88.57;92965.63;5069476;28;20241;-78
2023/06/24 03:21:44;;;;;;;21.52;17.05;;;;;;;21.91;87.78;92961.63;5070075;28;20276;-78
2023/06/24 03:24:09;;;;;;;18.02;16.08;;;;;;;21.96;87.36;92952.63;5069649;28;20196;-79
2023/06/24 03:26:38;;;;;;;19.77;16.50;;;;;;;22.20;86.46;92957.81;5070323;28;20201;-78
2023/06/24 03:29:04;;;;;;;17.73;15.98;;;;;;;22.27;86.05;92955.34;5069785;28;20209;-78
2023/06/24 03:31:30;;;;;;;18.33;16.38;;;;;;;22.49;84.83;92962.72;5070169;28;20200;-78
2023/06/24 03:33:55;;;;;;;17.58;15.73;;;;;;;22.47;85.04;92972.97;5070688;28;20195;-79
2023/06/24 03:36:21;;;;;;;17.13;15.43;;;;;;;22.15;85.68;92972.13;5069943;28;20214;-78
2023/06/24 03:38:46;;;;;;;18.58;16.17;;;;;;;22.80;83.39;92986.72;5070573;28;20581;-78
2023/06/24 03:41:12;;;;;;;16.98;15.43;;;;;;;22.86;83.09;92985.34;5070463;28;20230;-78
2023/06/24 03:43:37;;;;;;;20.05;16.08;;;;;;;23.19;81.92;93003.63;5083819;28;20209;-78
2023/06/24 03:46:02;;;;;;;18.42;15.70;;;;;;;23.21;80.36;92988.03;5070461;28;20222;-78
2023/06/24 03:48:28;;;;;;;17.23;15.43;;;;;;;23.09;81.75;93004.94;5069706;28;20163;-78
2023/06/24 03:50:53;;;;;;;17.38;15.68;;;;;;;23.14;81.42;92991.34;5069423;28;20231;-78
2023/06/24 03:53:19;;;;;;;17.27;15.43;;;;;;;23.49;80.75;93021.47;5069105;28;20194;-73
2023/06/24 03:55:44;;;;;;;17.75;16.05;;;;;;;23.60;79.60;93025.13;5069157;28;20278;-73
2023/06/24 03:58:10;;;;;;;21.67;18.00;;;;;;;23.74;76.48;93011.31;5068779;28;20194;-73
2023/06/24 04:00:40;;;;;;;18.67;16.48;;;;;;;23.69;77.29;93012.38;5069124;28;20218;-72
2023/06/24 04:03:08;;;;;;;18.63;16.60;;;;;;;23.84;77.14;93013.44;5071053;28;20225;-69
2023/06/24 04:05:34;;;;;;;19.83;17.45;;;;;;;24.10;76.56;93012.84;5069251;28;20220;-70
2023/06/24 04:07:59;;;;;;;18.27;16.48;;;;;;;24.23;76.08;93003.56;5068815;28;20194;-71
2023/06/24 04:10:25;;;;;;;18.42;16.58;;;;;;;24.33;73.83;93013.69;5062348;28;20234;-70
2023/06/24 04:12:50;;;;;;;19.63;17.60;;;;;;;24.92;73.33;93022.78;5068834;28;20189;-71
2023/06/24 04:15:16;;;;;;;18.38;16.50;;;;;;;25.25;70.73;93025.59;5068550;28;20261;-73
2023/06/24 04:17:41;;;;;;;19.10;16.60;;;;;;;24.98;71.39;93016.00;5050953;28;20187;-70
2023/06/24 04:20:10;;;;;;;18.17;16.38;;;;;;;25.10;71.86;93023.06;5067897;28;20620;-73
2023/06/24 04:22:37;;;;;;;17.08;15.10;;;;;;;25.02;72.87;93018.72;5068036;28;20290;-69
2023/06/24 04:25:02;;;;;;;20.27;18.25;;;;;;;24.13;75.30;93014.81;5067358;28;20587;-69
2023/06/24 04:27:28;;;;;;;19.00;17.17;;;;;;;24.55;74.74;93016.38;5068052;28;20211;-69
2023/06/24 04:29:53;;;;;;;18.83;16.90;;;;;;;24.90;73.84;93005.56;5067406;28;21352;-68
2023/06/24 04:32:19;;;;;;;18.98;17.13;;;;;;;25.24;72.64;93005.34;5074397;28;20199;-69
2023/06/24 04:34:44;;;;;;;20.10;17.08;;;;;;;26.28;68.70;93004.50;5067468;28;20220;-69
2023/06/24 04:37:10;;;;;;;18.80;16.10;;;;;;;28.24;61.81;93010.66;5066506;28;20184;-69
2023/06/24 04:39:35;;;;;;;16.65;15.02;;;;;;;28.09;61.49;93009.03;5073307;28;20263;-72
2023/06/24 04:42:01;;;;;;;16.92;15.02;;;;;;;27.49;62.89;93004.44;5063736;28;20228;-72
2023/06/24 04:44:26;;;;;;;17.98;15.48;;;;;;;26.58;66.37;92996.38;5064522;28;20230;-73
2023/06/24 04:46:52;;;;;;;22.92;16.80;;;;;;;26.09;68.29;92999.28;5047668;28;20193;-70
2023/06/24 04:49:18;;;;;;;17.77;15.98;;;;;;;25.70;69.85;92981.94;5047333;28;20192;-72
2023/06/24 04:51:43;;;;;;;17.65;15.95;;;;;;;26.30;68.52;92991.50;5048364;28;20184;-70
2023/06/24 04:54:09;;;;;;;16.55;14.95;;;;;;;25.74;70.43;92996.16;5045673;28;20257;-72
2023/06/24 04:56:34;;;;;;;19.25;15.82;;;;;;;25.94;69.12;93005.59;5045112;28;20204;-70
2023/06/24 04:59:00;;;;;;;16.63;15.02;;;;;;;26.31;68.17;93011.78;5046329;28;20205;-69
2023/06/24 05:01:26;;;;;;;17.63;16.02;;;;;;;26.23;69.36;93012.84;5046410;28;20217;-71
2023/06/24 05:03:51;;;;;;;15.65;14.20;;;;;;;26.12;69.60;92993.19;5047994;28;20244;-69
2023/06/24 05:06:17;;;;;;;18.38;16.50;;;;;;;26.90;66.54;93002.81;5047946;28;20227;-68
2023/06/24 05:08:42;;;;;;;17.90;15.75;;;;;;;26.86;67.94;93012.75;5050419;28;20249;-71
2023/06/24 05:11:07;;;;;;;18.90;16.02;;;;;;;27.35;64.46;93017.78;5044441;28;20230;-73
2023/06/24 05:13:33;;;;;;;16.30;14.68;;;;;;;26.77;65.34;92988.94;5054115;28;20241;-72
2023/06/24 05:15:58;;;;;;;19.80;17.73;;;;;;;28.22;60.40;93034.41;5051138;28;20221;-73
2023/06/24 05:18:23;;;;;;;21.73;16.55;;;;;;;29.24;58.02;93034.72;5050886;28;20193;-74
2023/06/24 05:20:49;;;;;;;19.70;16.50;;;;;;;30.06;52.82;93025.41;5043252;28;20215;-73
2023/06/24 05:23:15;;;;;;;18.10;15.82;;;;;;;28.87;56.17;93028.91;5057175;28;20217;-73
2023/06/24 05:25:40;;;;;;;19.30;17.20;;;;;;;28.69;56.82;93020.03;5042494;28;20663;-73
2023/06/24 05:28:05;;;;;;;18.83;16.50;;;;;;;27.54;61.27;93020.22;5050927;28;20636;-73
2023/06/24 05:30:31;;;;;;;18.85;15.63;;;;;;;27.12;63.03;93001.09;5049762;28;20206;-73
2023/06/24 05:32:56;;;;;;;20.30;16.33;;;;;;;27.81;62.60;93002.75;5051538;28;20205;-73
2023/06/24 05:35:21;;;;;;;21.33;16.75;;;;;;;29.35;56.17;92991.69;5052439;28;20313;-74
2023/06/24 05:37:47;;;;;;;17.83;15.95;;;;;;;29.79;55.11;93010.09;5049303;28;20182;-72
2023/06/24 05:40:13;;;;;;;19.40;16.63;;;;;;;33.80;44.06;93035.72;5049972;28;20232;-74
2023/06/24 05:42:38;;;;;;;20.20;16.83;;;;;;;36.95;36.88;93043.28;5040148;28;20232;-73
2023/06/24 05:45:06;;;;;;;17.52;15.75;;;;;;;35.97;37.31;93040.53;5058334;28;20229;-74
2023/06/24 05:47:31;;;;;;;19.52;15.27;;;;;;;37.46;35.01;93051.50;5049965;28;20179;-73
2023/06/24 05:49:57;;;;;;;16.23;14.57;;;;;;;37.98;34.47;93035.44;5056340;28;20225;-73
2023/06/24 05:52:22;;;;;;;16.75;14.32;;;;;;;37.60;33.80;93043.66;5052300;28;20201;-74
2023/06/24 05:54:47;;;;;;;18.30;14.00;;;;;;;39.28;31.69;93052.66;5057992;28;20221;-74
2023/06/24 05:57:13;;;;;;;13.85;12.52;;;;;;;40.20;29.55;93050.53;5051484;28;20187;-74
2023/06/24 05:59:38;;;;;;;14.82;13.32;;;;;;;39.81;30.25;93049.41;5056790;28;20241;-74
2023/06/24 06:02:04;;;;;;;13.43;12.32;;;;;;;41.08;28.16;93052.97;5049051;28;20199;-74
2023/06/24 06:04:29;;;;;;;12.95;11.95;;;;;;;40.72;27.62;93047.53;5043782;28;20237;-71
2023/06/24 06:06:55;;;;;;;14.35;12.95;;;;;;;40.36;28.56;93041.31;5060781;28;20235;-72
2023/06/24 06:09:22;;;;;;;14.02;12.68;;;;;;;40.63;28.49;93038.53;5050224;28;20182;-73
2023/06/24 06:11:47;;;;;;;14.30;12.80;;;;;;;41.26;27.49;93036.50;5046907;28;20197;-73
2023/06/24 06:14:13;;;;;;;14.13;12.82;;;;;;;41.03;27.40;93031.66;5050699;28;20170;-73
2023/06/24 06:16:38;;;;;;;15.63;14.05;;;;;;;39.51;28.90;93028.34;5050288;28;20982;-72
2023/06/24 06:19:04;;;;;;;14.57;13.13;;;;;;;40.02;28.85;93017.66;5048805;28;20209;-72
2023/06/24 06:21:29;;;;;;;15.45;13.65;;;;;;;40.19;28.27;93027.13;5049498;28;20237;-73
2023/06/24 06:23:55;;;;;;;16.10;14.13;;;;;;;38.66;30.53;93018.28;5048825;28;20208;-71
2023/06/24 06:26:21;;;;;;;16.45;14.85;;;;;;;39.48;29.66;93029.22;5048615;28;20214;-72
2023/06/24 06:28:47;;;;;;;14.45;13.18;;;;;;;39.67;29.20;93032.78;5058977;28;20209;-72
2023/06/24 06:31:13;;;;;;;13.52;12.32;;;;;;;40.53;28.33;93024.13;5049634;28;20218;-72
2023/06/24 06:33:38;;;;;;;16.25;14.60;;;;;;;37.46;31.95;93025.03;5050004;28;20247;-72
2023/06/24 06:36:04;;;;;;;14.77;13.30;;;;;;;39.64;29.31;93020.00;5048605;28;20256;-73
2023/06/24 06:38:30;;;;;;;14.57;13.27;;;;;;;41.26;27.14;93042.00;5050062;28;20191;-72
2023/06/24 06:40:55;;;;;;;14.82;13.43;;;;;;;40.42;27.45;93051.19;5049297;28;20217;-72
2023/06/24 06:43:21;;;;;;;15.05;13.60;;;;;;;38.51;30.70;93037.88;5048924;28;20225;-72
2023/06/24 06:45:47;;;;;;;16.10;14.40;;;;;;;40.04;27.91;93050.06;5048123;28;20236;-72
2023/06/24 06:48:12;;;;;;;15.50;14.07;;;;;;;39.14;29.30;93039.53;5049855;28;20190;-73
2023/06/24 06:50:37;;;;;;;15.18;13.60;;;;;;;36.99;32.88;93033.06;5049102;28;20229;-73
2023/06/24 06:53:03;;;;;;;16.38;14.82;;;;;;;35.22;36.96;93035.28;5049674;28;20182;-72
2023/06/24 06:55:29;;;;;;;16.50;14.93;;;;;;;32.17;43.22;93003.19;5040577;28;20248;-73
2023/06/24 06:57:55;;;;;;;18.00;16.20;;;;;;;31.17;48.10;93011.81;5049589;28;20254;-73
2023/06/24 07:00:20;;;;;;;17.27;15.30;;;;;;;30.77;48.40;93015.16;5048989;28;20234;-73
2023/06/24 07:02:46;;;;;;;18.05;16.33;;;;;;;29.89;53.37;93004.69;5049166;28;20216;-72
2023/06/24 07:05:11;;;;;;;18.08;16.38;;;;;;;30.27;50.47;93011.13;5048852;28;20221;-72
2023/06/24 07:07:38;;;;;;;19.30;17.25;;;;;;;30.17;51.00;93009.22;5049138;28;20216;-72
2023/06/24 07:10:04;;;;;;;20.08;16.73;;;;;;;29.73;53.33;93013.19;5050271;28;20236;-73
2023/06/24 07:12:29;;;;;;;21.50;16.67;;;;;;;28.69;58.06;93009.25;5048380;28;20197;-73
2023/06/24 07:14:54;;;;;;;18.88;17.02;;;;;;;28.68;59.06;93020.41;5048997;28;20219;-72
2023/06/24 07:17:20;;;;;;;18.90;17.05;;;;;;;29.65;54.69;93017.03;5053008;28;20182;-72
2023/06/24 07:19:45;;;;;;;19.67;17.58;;;;;;;28.78;56.16;93006.22;5048073;28;20232;-72
2023/06/24 07:22:11;;;;;;;21.55;17.02;;;;;;;29.19;55.26;93016.28;5049523;28;20209;-72
2023/06/24 07:24:36;;;;;;;19.35;17.48;;;;;;;29.28;54.96;93013.97;5058817;28;20235;-72
2023/06/24 07:27:01;;;;;;;20.77;16.65;;;;;;;29.33;56.33;93016.28;5059673;28;20178;-72
2023/06/24 07:29:27;;;;;;;23.48;17.27;;;;;;;28.91;58.93;93018.13;5051461;28;20293;-72
2023/06/24 07:31:52;;;;;;;23.02;18.45;;;;;;;28.91;56.08;93016.22;5059459;28;20243;-72
2023/06/24 07:34:17;;;;;;;22.05;18.23;;;;;;;28.96;56.18;93018.53;5058271;28;20192;-71
2023/06/24 07:36:43;;;;;;;24.55;18.08;;;;;;;28.90;56.32;93017.38;5058369;28;20256;-71
2023/06/24 07:39:08;;;;;;;19.70;17.30;;;;;;;29.28;56.55;93003.19;5050280;28;20213;-71
2023/06/24 07:41:34;;;;;;;20.73;17.25;;;;;;;29.25;56.03;93011.25;5048518;28;20185;-71
2023/06/24 07:43:59;;;;;;;20.52;18.02;;;;;;;28.77;59.16;93004.66;5049852;28;20201;-72
2023/06/24 07:46:26;;;;;;;21.00;18.30;;;;;;;29.10;56.24;93013.19;5049324;28;21014;-70
2023/06/24 07:48:52;;;;;;;19.98;17.48;;;;;;;29.02;56.52;92976.66;5049593;28;20182;-72
2023/06/24 07:51:18;;;;;;;25.42;18.45;;;;;;;28.78;57.60;93017.72;5045485;28;21021;-73
2023/06/24 07:53:43;;;;;;;21.38;19.17;;;;;;;28.86;57.44;93005.84;5049515;28;20695;-73
2023/06/24 07:56:08;;;;;;;21.60;19.23;;;;;;;28.86;56.21;93008.53;5048817;28;20221;-74
2023/06/24 07:58:34;;;;;;;19.88;17.85;;;;;;;28.69;59.73;92997.72;5049092;28;20209;-73
2023/06/24 08:01:00;;;;;;;20.25;18.38;;;;;;;28.86;57.36;93008.53;5046009;28;20239;-72
2023/06/24 08:03:25;;;;;;;19.85;17.75;;;;;;;28.73;60.64;93012.75;5049447;28;20209;-74
2023/06/24 08:05:50;;;;;;;22.50;20.08;;;;;;;28.75;60.39;93023.13;5055402;28;20214;-72
2023/06/24 08:08:18;;;;;;;23.00;19.58;;;;;;;29.00;60.04;93018.53;5054802;28;20184;-73
2023/06/24 08:10:43;;;;;;;21.20;18.95;;;;;;;29.44;55.26;93017.03;5047059;28;20261;-74
2023/06/24 08:13:08;;;;;;;21.88;18.73;;;;;;;28.98;60.95;93021.59;5046693;28;20193;-72
2023/06/24 08:15:34;;;;;;;19.75;17.85;;;;;;;29.26;58.36;93015.50;5048210;28;20824;-74
2023/06/24 08:17:59;;;;;;;24.30;18.17;;;;;;;29.33;58.11;93015.50;5046394;28;20201;-73
2023/06/24 08:20:25;;;;;;;22.15;19.30;;;;;;;29.15;57.61;93009.34;5047497;28;20229;-72
2023/06/24 08:22:51;;;;;;;25.35;19.13;;;;;;;28.62;60.33;93003.88;5047287;28;20236;-74
2023/06/24 08:25:16;;;;;;;21.02;18.85;;;;;;;28.49;60.57;93015.34;5046990;28;20226;-74
2023/06/24 08:27:43;;;;;;;19.83;17.88;;;;;;;29.10;56.16;93013.19;5047827;28;20186;-74
2023/06/24 08:30:09;;;;;;;19.95;17.80;;;;;;;29.34;57.03;93008.97;5048275;28;20252;-73
2023/06/24 08:32:34;;;;;;;21.42;18.55;;;;;;;29.39;58.56;92995.91;5045139;28;20194;-73
2023/06/24 08:34:59;;;;;;;20.95;17.00;;;;;;;29.22;56.73;93004.75;5047882;28;20236;-73
2023/06/24 08:37:25;;;;;;;19.52;17.58;;;;;;;29.12;57.43;93010.88;5046467;28;20186;-73
2023/06/24 08:39:50;;;;;;;23.75;17.52;;;;;;;29.37;58.07;93010.91;5047848;28;20249;-72
2023/06/24 08:42:16;;;;;;;21.27;19.08;;;;;;;29.65;58.84;92998.19;5047706;28;20286;-73
2023/06/24 08:44:41;;;;;;;23.90;19.98;;;;;;;29.81;54.66;92997.03;5049845;28;20226;-73
2023/06/24 08:47:06;;;;;;;19.02;17.17;;;;;;;29.69;54.68;92993.59;5052338;28;20241;-74
2023/06/24 08:49:34;;;;;;;19.05;17.15;;;;;;;29.56;57.25;92992.41;5051573;28;20225;-73
2023/06/24 08:52:07;;;;;;;19.50;17.33;;;;;;;29.45;56.72;92978.19;5049998;28;20177;-74
2023/06/24 08:54:35;;;;;;;20.73;18.35;;;;;;;29.43;55.72;92987.81;5052341;28;20297;-73
2023/06/24 08:57:04;;;;;;;20.25;17.88;;;;;;;29.34;56.27;92982.81;5057416;28;20190;-72
2023/06/24 08:59:31;;;;;;;19.67;17.20;;;;;;;29.24;57.14;92991.69;5053121;28;20222;-73
2023/06/24 09:01:56;;;;;;;18.77;16.83;;;;;;;29.34;58.59;92985.50;5054570;28;20219;-73
2023/06/24 09:04:21;;;;;;;18.08;16.25;;;;;;;29.55;57.36;92992.81;5058842;28;20224;-74
2023/06/24 09:06:47;;;;;;;18.40;16.65;;;;;;;29.04;57.20;92969.00;5061779;28;20220;-74
2023/06/24 09:09:22;;;;;;;19.73;17.83;;;;;;;29.70;54.73;92984.34;5052123;28;20436;-74
2023/06/24 09:12:00;;;;;;;18.27;16.48;;;;;;;29.88;55.58;92983.53;5066423;28;20189;-74
2023/06/24 09:14:29;;;;;;;19.23;17.40;;;;;;;29.47;55.39;92988.56;5052860;28;20899;-73
2023/06/24 09:17:01;;;;;;;18.23;16.52;;;;;;;29.61;56.66;92993.94;5052100;28;20542;-74
2023/06/24 09:19:29;;;;;;;18.67;16.85;;;;;;;29.65;55.92;92986.69;5052327;28;20226;-73
2023/06/24 09:21:55;;;;;;;19.25;17.48;;;;;;;29.83;56.39;92989.31;5053123;28;20193;-73
2023/06/24 09:24:20;;;;;;;24.80;18.95;;;;;;;30.17;58.20;92993.03;5052524;28;20205;-73
2023/06/24 09:26:46;;;;;;;49.60;24.48;;;;;;;30.08;57.83;92998.84;5060496;28;20182;-73
2023/06/24 09:29:13;;;;;;;19.40;17.50;;;;;;;29.88;55.76;92988.91;5052278;28;20208;-74
2023/06/24 09:31:55;;;;;;;18.45;16.65;;;;;;;30.04;53.98;92992.69;5048692;28;20194;-73
2023/06/24 09:34:21;;;;;;;19.35;17.50;;;;;;;29.54;55.96;92993.97;5052786;28;20201;-74
2023/06/24 09:36:52;;;;;;;18.67;15.77;;;;;;;29.73;56.38;92980.09;5042092;28;20222;-73
2023/06/24 09:39:18;;;;;;;17.48;15.75;;;;;;;30.04;54.44;93000.03;5052699;28;20197;-73
2023/06/24 09:41:48;;;;;;;18.63;16.83;;;;;;;29.97;54.31;92989.25;5051649;28;20193;-74
2023/06/24 09:44:16;;;;;;;18.52;16.77;;;;;;;30.36;53.10;92992.59;5063838;28;20224;-73
2023/06/24 09:46:43;;;;;;;18.02;16.13;;;;;;;30.14;54.84;92996.53;5063160;28;20256;-71
2023/06/24 09:49:08;;;;;;;26.52;18.10;;;;;;;29.90;55.35;92990.06;5068791;28;20182;-73
2023/06/24 09:51:38;;;;;;;18.17;16.42;;;;;;;29.75;53.64;92983.19;5071137;28;20280;-73
2023/06/24 09:54:06;;;;;;;16.73;14.93;;;;;;;30.11;53.60;92991.91;5068773;28;20196;-73
2023/06/24 09:56:37;;;;;;;17.42;15.63;;;;;;;29.91;54.04;92983.53;5055163;28;20196;-72
2023/06/24 09:59:04;;;;;;;16.48;14.77;;;;;;;30.36;54.38;92984.53;5059544;28;20186;-73
2023/06/24 10:01:32;;;;;;;19.15;15.30;;;;;;;30.37;53.34;92980.69;5062486;28;20196;-73
2023/06/24 10:03:58;;;;;;;17.60;15.40;;;;;;;30.53;55.88;92978.28;5051382;28;20232;-72
2023/06/24 10:06:25;;;;;;;17.50;15.73;;;;;;;30.51;51.17;92972.50;5053204;28;20244;-73
2023/06/24 10:08:52;;;;;;;17.10;15.25;;;;;;;30.52;51.91;92976.75;5057965;28;20190;-72
2023/06/24 10:11:17;;;;;;;17.33;15.57;;;;;;;30.50;52.86;92977.16;5054405;28;20240;-72
2023/06/24 10:13:43;;;;;;;16.92;15.05;;;;;;;30.62;50.48;92965.13;5053209;28;20193;-72
2023/06/24 10:16:08;;;;;;;16.20;14.60;;;;;;;30.65;50.23;92961.63;5051706;28;20234;-73
2023/06/24 10:18:36;;;;;;;18.67;14.50;;;;;;;30.77;51.13;92953.88;5051361;28;20198;-73
2023/06/24 10:21:05;;;;;;;17.33;15.57;;;;;;;30.92;50.69;92963.44;5049753;28;20241;-70
2023/06/24 10:23:41;;;;;;;17.75;15.90;;;;;;;30.58;53.53;92942.81;5050521;28;20228;-70
2023/06/24 10:26:30;;;;;;;16.88;15.23;;;;;;;31.10;52.04;92941.69;5056626;28;20324;-70
2023/06/24 10:29:04;;;;;;;18.38;14.85;;;;;;;30.86;49.97;92937.28;5048739;28;20361;-70
2023/06/24 10:31:39;;;;;;;16.45;14.85;;;;;;;30.35;48.83;92939.88;5072253;28;20234;-69
2023/06/24 10:34:26;;;;;;;16.02;14.43;;;;;;;30.43;49.00;92938.69;5069967;28;20196;-71
2023/06/24 10:37:10;;;;;;;15.65;14.25;;;;;;;30.41;50.93;92935.63;5070283;28;20196;-72
2023/06/24 10:39:49;;;;;;;18.17;15.52;;;;;;;30.51;48.29;92932.06;5058786;28;20292;-68
2023/06/24 10:42:30;;;;;;;17.20;15.27;;;;;;;30.57;50.45;92919.75;5070328;28;20237;-70
2023/06/24 10:44:59;;;;;;;19.15;17.50;;;;;;;29.80;52.52;92909.31;5062446;28;20431;-71
2023/06/24 10:47:28;;;;;;;19.38;17.40;;;;;;;30.35;51.88;92899.47;5061913;28;20201;-70
2023/06/24 10:49:54;;;;;;;16.23;14.70;;;;;;;30.60;52.36;92898.13;5069583;28;20232;-71
2023/06/24 10:52:24;;;;;;;28.88;18.23;;;;;;;30.67;48.04;92903.47;5068034;28;20193;-71
2023/06/24 10:54:51;;;;;;;16.83;14.93;;;;;;;30.85;49.72;92892.59;5070021;28;20232;-71
2023/06/24 10:57:23;;;;;;;14.80;13.27;;;;;;;30.97;48.54;92897.50;5067512;28;20197;-70
2023/06/24 10:59:51;;;;;;;16.45;14.77;;;;;;;31.12;48.14;92896.19;5063247;28;20266;-70
2023/06/24 11:02:19;;;;;;;15.27;13.77;;;;;;;31.19;46.91;92898.84;5069205;28;20224;-70
2023/06/24 11:04:51;;;;;;;16.15;13.77;;;;;;;31.00;46.18;92888.59;5068826;28;20307;-69
2023/06/24 11:07:19;;;;;;;16.92;13.00;;;;;;;31.02;45.77;92891.69;5063656;28;20198;-70
2023/06/24 11:09:58;;;;;;;17.30;15.70;;;;;;;31.11;46.66;92890.03;5065012;28;20221;-71
2023/06/24 11:12:26;;;;;;;15.68;13.93;;;;;;;31.17;45.25;92893.84;5068054;28;20223;-70
2023/06/24 11:14:51;;;;;;;14.45;12.73;;;;;;;31.29;45.17;92891.81;5068848;28;20237;-70
2023/06/24 11:17:19;;;;;;;15.23;13.90;;;;;;;31.59;44.27;92892.69;5069048;28;20173;-70